Briefing drone pour Romorantin-lanthenay (LFYR)

Rechercher une autre localisation

Conditions de vol :


Nous sommes le : Lundi 25 octobre 2021
Il est 04:30 UTC (06:30 LT)

Lever de soleil : 06:00 UTC (08:00 LT)
Coucher de soleil : 17:14 UTC (19:14 LT)

Météo

L'essentiel des conditions de vol

VIGILANCE MÉTÉO FRANCE - Loir-et-Cher (41)
Pas de vigilances particulieres
CARTE TEMSI
CARTES DES FRONTS
METAR de LFYR
LFYR 250400Z AUTO VRB01KT CAVOK 03/03 Q1020

Date d'émission: 25/10/2021
Heure d'émission: 04:00 UTC
Vent: Variable 1 KT (2 km/h)
Visibilité horizontale: > 10 km
Plafond : Plafond et visibilité OK (CAVOK)
Température: 3 °C
Point de rosée: 3 °C
Humidité: 100%
Pression (QNH): 1020 hPa
TAF de LFYR
AMD LFYR 221400Z 2214/2309 CNL

Conditions prévues :

Heure d'émission : Bulletin éffectué le 22 à 14:00 UTC
Prévision : Valide du 22 a 14:00 UTC au 23 a 09:00 UTC
Nuages : à 0ft (0 m)
WEBCAM POUR ROMORANTIN-LANTHENAY

Réglementation

Voler en sécurité

CARTES AERONAUTIQUE 1/500.000
CARTES VAC (LFYR)
SUP AIP




Chargement des AIP...
NOTAM (ROMORANTIN-LANTHENAY + Terrain à proximité / FIR )




Chargement des NOTAMS...
CONTACT PREFECTURE 41
Loir-et-Cher (41) : pref-bpas@loir-et-cher.gouv.fr


Avertissement : Les données mises à disposition sont indicatives. Oxygène Drone ne pourra être tenu responsable de dégâts causés aux biens et aux personnes.